createdAt,value
2023-05-14T00:00:59.847Z,39.58
2023-05-14T00:03:28.266Z,39.30
2023-05-14T00:05:56.088Z,40.13
2023-05-14T00:08:25.275Z,41.45
2023-05-14T00:10:53.983Z,41.47
2023-05-14T00:13:21.736Z,40.27
2023-05-14T00:15:49.497Z,41.30
2023-05-14T00:18:17.760Z,40.92
2023-05-14T00:20:45.578Z,41.97
2023-05-14T00:23:13.593Z,42.00
2023-05-14T00:25:43.306Z,44.03
2023-05-14T00:28:11.089Z,42.75
2023-05-14T00:30:39.733Z,42.97
2023-05-14T00:33:08.332Z,41.83
2023-05-14T00:35:36.267Z,44.03
2023-05-14T00:38:04.792Z,42.03
2023-05-14T00:40:33.269Z,41.63
2023-05-14T00:43:02.521Z,40.20
2023-05-14T00:45:30.318Z,38.85
2023-05-14T00:47:58.747Z,38.95
2023-05-14T00:50:27.112Z,39.65
2023-05-14T00:52:55.022Z,41.58
2023-05-14T00:55:24.264Z,42.15
2023-05-14T00:57:52.302Z,39.67
2023-05-14T01:00:22.129Z,42.80
2023-05-14T01:02:50.599Z,39.28
2023-05-14T01:05:18.680Z,42.55
2023-05-14T01:07:56.781Z,43.95
2023-05-14T01:10:30.043Z,44.08
2023-05-14T01:13:05.085Z,43.53
2023-05-14T01:15:37.087Z,44.85
2023-05-14T01:18:08.067Z,44.80
2023-05-14T01:20:36.447Z,44.47
2023-05-14T01:23:05.956Z,47.05
2023-05-14T01:25:34.281Z,45.60
2023-05-14T01:28:08.059Z,46.47
2023-05-14T01:30:38.530Z,45.72
2023-05-14T01:33:11.114Z,47.90
2023-05-14T01:35:39.777Z,46.70
2023-05-14T01:38:12.314Z,45.23
2023-05-14T01:40:41.394Z,48.63
2023-05-14T01:43:09.702Z,48.97
2023-05-14T01:45:38.298Z,45.75
2023-05-14T01:48:07.240Z,47.47
2023-05-14T01:50:35.107Z,46.65
2023-05-14T01:53:02.925Z,47.08
2023-05-14T01:55:32.125Z,48.05
2023-05-14T01:57:59.940Z,46.97
2023-05-14T02:00:28.168Z,47.25
2023-05-14T02:02:56.509Z,48.08
2023-05-14T02:05:24.396Z,49.92
2023-05-14T02:07:52.823Z,49.83
2023-05-14T02:10:21.256Z,48.35
2023-05-14T02:12:50.542Z,47.42
2023-05-14T02:15:18.408Z,48.15
2023-05-14T02:17:46.966Z,50.40
2023-05-14T02:20:15.093Z,47.88
2023-05-14T02:22:45.658Z,51.20
2023-05-14T02:25:14.216Z,49.25
2023-05-14T02:27:42.011Z,50.97
2023-05-14T02:30:12.650Z,53.85
2023-05-14T02:32:40.567Z,51.78
2023-05-14T02:35:09.264Z,48.55
2023-05-14T02:37:37.040Z,50.15
2023-05-14T02:40:05.729Z,51.75
2023-05-14T02:42:33.506Z,50.30
2023-05-14T02:45:01.271Z,50.17
2023-05-14T02:47:31.011Z,47.67
2023-05-14T02:49:58.824Z,48.72
2023-05-14T02:52:26.639Z,50.13
2023-05-14T02:54:54.456Z,49.67
2023-05-14T02:57:22.239Z,48.17
2023-05-14T02:59:50.033Z,50.17
2023-05-14T03:02:18.722Z,51.42
2023-05-14T03:04:48.273Z,48.42
2023-05-14T03:07:16.056Z,49.30
2023-05-14T03:09:44.282Z,49.08
2023-05-14T03:12:12.695Z,49.17
2023-05-14T03:14:40.505Z,51.40
2023-05-14T03:17:09.012Z,49.42
2023-05-14T03:19:36.900Z,48.00
2023-05-14T03:22:06.269Z,48.42
2023-05-14T03:24:34.623Z,47.75
2023-05-14T03:27:02.389Z,49.22
2023-05-14T03:29:30.504Z,49.20
2023-05-14T03:31:58.937Z,47.60
2023-05-14T03:34:26.803Z,47.50
2023-05-14T03:36:54.561Z,48.88
2023-05-14T03:39:24.212Z,50.03
2023-05-14T03:44:19.648Z,48.42
2023-05-14T03:46:47.970Z,49.00
2023-05-14T03:49:15.784Z,47.90
2023-05-14T03:51:43.550Z,50.35
2023-05-14T03:54:11.833Z,48.05
2023-05-14T03:56:41.144Z,47.33
2023-05-14T03:59:08.930Z,46.97
2023-05-14T04:01:37.424Z,46.95
2023-05-14T04:04:05.589Z,49.75
2023-05-14T04:06:34.146Z,47.50
2023-05-14T04:09:02.544Z,47.75
2023-05-14T04:11:30.316Z,48.22
2023-05-14T04:13:59.457Z,46.00
2023-05-14T04:16:27.846Z,44.78
2023-05-14T04:18:55.768Z,47.30
2023-05-14T04:21:23.568Z,47.40
2023-05-14T04:23:52.129Z,49.42
2023-05-14T04:26:20.085Z,49.95
2023-05-14T04:28:47.900Z,45.67
2023-05-14T04:31:17.519Z,46.45
2023-05-14T04:36:12.882Z,46.00
2023-05-14T04:38:42.098Z,48.53
2023-05-14T04:41:09.876Z,45.75
2023-05-14T04:43:37.625Z,46.83
2023-05-14T04:46:06.219Z,48.08
2023-05-14T04:48:35.380Z,46.70
2023-05-14T04:51:04.974Z,46.10
2023-05-14T04:53:34.634Z,46.85
2023-05-14T04:56:02.391Z,48.28
2023-05-14T04:58:34.617Z,45.97
2023-05-14T05:01:04.411Z,46.67
2023-05-14T05:03:32.247Z,45.35
2023-05-14T05:06:01.465Z,44.70
2023-05-14T05:08:29.702Z,44.92
2023-05-14T05:10:57.520Z,45.63
2023-05-14T05:13:25.342Z,44.00
2023-05-14T05:15:53.157Z,45.47
2023-05-14T05:18:20.965Z,46.15
2023-05-14T05:20:48.786Z,45.13
2023-05-14T05:23:18.491Z,46.42
2023-05-14T05:25:46.233Z,46.60
2023-05-14T05:28:13.997Z,44.45
2023-05-14T05:30:42.452Z,46.30
2023-05-14T05:33:10.351Z,46.08
2023-05-14T05:35:38.298Z,46.80
2023-05-14T05:38:06.480Z,44.72
2023-05-14T05:40:35.697Z,45.88
2023-05-14T05:43:03.449Z,45.60
2023-05-14T05:45:31.853Z,46.22
2023-05-14T05:47:59.710Z,43.88
2023-05-14T05:50:27.588Z,46.20
2023-05-14T05:52:55.826Z,44.83
2023-05-14T05:55:23.772Z,45.97
2023-05-14T05:57:52.992Z,43.88
2023-05-14T06:00:22.356Z,43.30
2023-05-14T06:02:50.480Z,44.42
2023-05-14T06:05:19.258Z,43.65
2023-05-14T06:07:47.689Z,45.55
2023-05-14T06:10:15.473Z,46.15
2023-05-14T06:12:43.260Z,45.40
2023-05-14T06:15:13.697Z,45.78
2023-05-14T06:17:41.555Z,44.50
2023-05-14T06:20:10.163Z,43.90
2023-05-14T06:22:38.636Z,44.25
2023-05-14T06:25:07.065Z,42.22
2023-05-14T06:27:34.847Z,42.35
2023-05-14T06:30:03.144Z,42.88
2023-05-14T06:32:32.386Z,43.90
2023-05-14T06:35:01.876Z,43.00
2023-05-14T06:37:30.200Z,42.40
2023-05-14T06:39:58.149Z,41.75
2023-05-14T06:42:26.367Z,42.53
2023-05-14T06:44:55.055Z,42.53
2023-05-14T06:47:23.003Z,42.57
2023-05-14T06:49:52.251Z,40.15
2023-05-14T06:52:20.757Z,42.30
2023-05-14T06:54:48.520Z,42.67
2023-05-14T06:57:16.289Z,42.03
2023-05-14T06:59:44.701Z,41.28
2023-05-14T07:02:13.206Z,42.40
2023-05-14T07:04:41.248Z,41.05
2023-05-14T07:07:15.600Z,41.53
2023-05-14T07:09:43.407Z,40.95
2023-05-14T07:12:11.276Z,40.45
2023-05-14T07:14:39.612Z,40.35
2023-05-14T07:17:07.469Z,40.55
2023-05-14T07:19:35.306Z,39.25
2023-05-14T07:22:03.720Z,38.88
2023-05-14T07:24:32.872Z,37.03
2023-05-14T07:27:01.877Z,37.17
2023-05-14T07:29:30.623Z,39.45
2023-05-14T07:31:58.402Z,42.17
2023-05-14T07:34:26.163Z,40.65
2023-05-14T07:36:54.821Z,37.25
2023-05-14T07:39:22.663Z,38.53
2023-05-14T07:41:52.021Z,39.65
2023-05-14T07:44:20.398Z,39.78
2023-05-14T07:46:48.198Z,39.47
2023-05-14T07:49:16.001Z,36.95
2023-05-14T07:51:44.091Z,38.42
2023-05-14T07:54:12.338Z,38.42
2023-05-14T07:56:40.156Z,39.22
2023-05-14T07:59:09.857Z,37.47
2023-05-14T08:01:39.335Z,38.15
2023-05-14T08:04:07.510Z,38.55
2023-05-14T08:06:36.189Z,38.20
2023-05-14T08:09:05.327Z,40.20
2023-05-14T08:11:33.161Z,40.00
2023-05-14T08:14:01.461Z,37.58
2023-05-14T08:16:30.640Z,38.15
2023-05-14T08:18:58.469Z,36.97
2023-05-14T08:21:26.852Z,37.92
2023-05-14T08:23:54.674Z,38.53
2023-05-14T08:26:22.860Z,38.85
2023-05-14T08:28:51.137Z,38.08
2023-05-14T08:31:18.925Z,37.45
2023-05-14T08:33:48.082Z,37.70
2023-05-14T08:36:16.423Z,38.08
2023-05-14T08:38:45.329Z,36.47
2023-05-14T08:41:14.917Z,36.30
2023-05-14T08:46:16.027Z,36.70
2023-05-14T08:48:49.586Z,35.15
2023-05-14T08:51:18.844Z,34.35
2023-05-14T08:53:46.675Z,35.80
2023-05-14T08:56:16.813Z,34.03
2023-05-14T08:58:44.622Z,33.38
2023-05-14T09:01:12.416Z,31.58
2023-05-14T09:03:41.739Z,29.85
2023-05-14T09:06:10.444Z,30.10
2023-05-14T09:08:39.778Z,29.03
2023-05-14T09:11:08.383Z,30.40
2023-05-14T09:13:41.007Z,29.40
2023-05-14T09:16:09.645Z,29.70
2023-05-14T09:18:37.975Z,28.93
2023-05-14T09:21:06.092Z,29.48
2023-05-14T09:23:35.260Z,30.00
2023-05-14T09:26:06.958Z,27.73
2023-05-14T09:28:34.753Z,28.55
2023-05-14T09:31:04.240Z,29.60
2023-05-14T09:36:01.284Z,28.30
2023-05-14T09:38:32.362Z,29.10
2023-05-14T09:41:00.768Z,28.88
2023-05-14T09:43:29.908Z,29.08
2023-05-14T09:45:57.684Z,30.27
2023-05-14T09:48:26.363Z,27.70
2023-05-14T09:50:54.197Z,26.93
2023-05-14T09:53:22.216Z,27.20
2023-05-14T09:55:53.224Z,26.77
2023-05-14T09:58:21.326Z,25.92
2023-05-14T10:00:52.068Z,27.02
2023-05-14T10:03:21.344Z,26.65
2023-05-14T10:05:51.092Z,25.17
2023-05-14T10:08:23.451Z,26.27
2023-05-14T10:10:54.760Z,24.92
2023-05-14T10:13:28.382Z,24.40
2023-05-14T10:16:02.896Z,24.77
2023-05-14T10:18:37.188Z,24.33
2023-05-14T10:21:06.731Z,24.98
2023-05-14T10:26:03.812Z,24.02
2023-05-14T10:28:32.827Z,24.55
2023-05-14T10:31:02.038Z,25.30
2023-05-14T10:33:30.299Z,24.58
2023-05-14T10:36:01.033Z,27.05
2023-05-14T10:38:29.830Z,24.27
2023-05-14T10:41:00.036Z,24.77
2023-05-14T10:43:29.334Z,23.85
2023-05-14T10:45:57.446Z,23.88
2023-05-14T10:48:27.569Z,23.92
2023-05-14T10:50:57.730Z,24.35
2023-05-14T10:53:34.517Z,24.33
2023-05-14T10:56:07.456Z,23.25
2023-05-14T10:58:39.110Z,22.90
2023-05-14T11:01:08.446Z,23.92
2023-05-14T11:03:43.300Z,22.73
2023-05-14T11:06:12.199Z,23.83
2023-05-14T11:08:40.975Z,22.60
2023-05-14T11:11:10.725Z,23.02
2023-05-14T11:13:38.630Z,21.52
2023-05-14T11:18:41.061Z,22.35
2023-05-14T11:21:10.251Z,20.88
2023-05-14T11:23:38.055Z,20.10
2023-05-14T11:26:06.399Z,20.33
2023-05-14T11:28:34.222Z,18.70
2023-05-14T11:31:02.199Z,18.95
2023-05-14T11:33:31.155Z,19.77
2023-05-14T11:35:58.924Z,18.70
2023-05-14T11:38:28.077Z,17.70
2023-05-14T11:40:56.906Z,18.52
2023-05-14T11:43:25.188Z,18.85
2023-05-14T11:45:53.918Z,19.30
2023-05-14T11:48:22.615Z,18.85
2023-05-14T11:50:52.407Z,19.15
2023-05-14T11:53:20.831Z,18.23
2023-05-14T11:55:50.554Z,17.58
2023-05-14T11:58:19.526Z,18.48
2023-05-14T12:00:47.902Z,18.33
2023-05-14T12:03:16.367Z,19.02
2023-05-14T12:05:57.035Z,18.48
2023-05-14T12:08:28.548Z,18.55
2023-05-14T12:10:59.607Z,19.83
2023-05-14T12:13:27.853Z,18.80
2023-05-14T12:15:57.814Z,19.10
2023-05-14T12:18:26.427Z,18.00
2023-05-14T12:20:54.262Z,18.87
2023-05-14T12:23:27.157Z,18.75
2023-05-14T12:25:54.920Z,19.58
2023-05-14T12:28:24.704Z,18.67
2023-05-14T12:30:57.756Z,18.65
2023-05-14T12:33:26.575Z,17.60
2023-05-14T12:35:58.967Z,18.20
2023-05-14T12:38:28.581Z,18.08
2023-05-14T12:40:56.862Z,17.40
2023-05-14T12:43:30.175Z,18.02
2023-05-14T12:45:58.083Z,17.02
2023-05-14T12:48:26.582Z,16.98
2023-05-14T12:50:54.721Z,16.70
2023-05-14T12:53:22.525Z,16.60
2023-05-14T12:55:50.326Z,18.83
2023-05-14T12:58:18.434Z,16.70
2023-05-14T13:00:47.674Z,17.92
2023-05-14T13:03:15.604Z,18.67
2023-05-14T13:05:43.628Z,18.02
2023-05-14T13:08:14.666Z,17.80
2023-05-14T13:10:42.435Z,16.10
2023-05-14T13:13:10.445Z,17.50
2023-05-14T13:15:38.653Z,17.20
2023-05-14T13:18:08.190Z,17.10
2023-05-14T13:20:36.403Z,15.82
2023-05-14T13:23:04.215Z,14.65
2023-05-14T13:25:32.026Z,14.90
2023-05-14T13:28:00.115Z,14.93
2023-05-14T13:30:27.986Z,14.80
2023-05-14T13:32:55.918Z,14.95
2023-05-14T13:35:25.487Z,15.55
2023-05-14T13:37:53.458Z,16.02
2023-05-14T13:40:21.354Z,14.23
2023-05-14T13:42:49.397Z,14.75
2023-05-14T13:45:17.206Z,14.52
2023-05-14T13:47:45.043Z,14.45
2023-05-14T13:50:13.445Z,13.32
2023-05-14T13:52:42.596Z,14.38
2023-05-14T13:55:10.742Z,14.20
2023-05-14T13:57:39.963Z,15.70
2023-05-14T14:00:11.114Z,13.35
2023-05-14T14:02:38.938Z,13.45
2023-05-14T14:05:07.991Z,13.60
2023-05-14T14:07:35.854Z,12.95
2023-05-14T14:10:05.674Z,13.20
2023-05-14T14:12:34.089Z,13.40
2023-05-14T14:15:02.841Z,12.52
2023-05-14T14:17:30.801Z,11.52
2023-05-14T14:19:59.004Z,11.40
2023-05-14T14:22:28.983Z,11.88
2023-05-14T14:24:57.205Z,11.75
2023-05-14T14:27:26.994Z,12.05
2023-05-14T14:29:56.727Z,12.27
2023-05-14T14:32:24.528Z,12.25
2023-05-14T14:34:52.884Z,11.60
2023-05-14T14:37:21.279Z,10.88
2023-05-14T14:39:50.811Z,10.48
2023-05-14T14:42:18.663Z,11.07
2023-05-14T14:44:47.834Z,11.65
2023-05-14T14:47:15.648Z,10.13
2023-05-14T14:49:44.081Z,10.38
2023-05-14T14:52:11.916Z,10.95
2023-05-14T14:54:39.711Z,10.82
2023-05-14T14:57:08.070Z,10.10
2023-05-14T14:59:36.333Z,9.80
2023-05-14T15:02:06.404Z,9.50
2023-05-14T15:04:35.320Z,10.05
2023-05-14T15:07:03.415Z,10.30
2023-05-14T15:09:31.334Z,10.77
2023-05-14T15:11:59.731Z,9.88
2023-05-14T15:14:27.942Z,27.95
2023-05-14T15:16:55.816Z,11.05
2023-05-14T15:19:25.578Z,9.65
2023-05-14T15:21:53.754Z,8.88
2023-05-14T15:24:23.893Z,9.48
2023-05-14T15:26:53.428Z,9.88
2023-05-14T15:29:21.596Z,9.65
2023-05-14T15:31:49.376Z,8.90
2023-05-14T15:34:17.767Z,8.27
2023-05-14T15:36:46.944Z,8.73
2023-05-14T15:39:14.737Z,9.52
2023-05-14T15:41:43.114Z,9.82
2023-05-14T15:44:10.899Z,9.52
2023-05-14T15:46:38.899Z,8.45
2023-05-14T15:49:07.316Z,9.52
2023-05-14T15:51:35.888Z,8.35
2023-05-14T15:54:05.075Z,9.50
2023-05-14T15:56:33.469Z,9.55
2023-05-14T15:59:01.250Z,9.45
2023-05-14T16:01:29.134Z,9.30
2023-05-14T16:03:57.564Z,9.43
2023-05-14T16:06:26.365Z,9.55
2023-05-14T16:08:54.448Z,9.98
2023-05-14T16:11:24.184Z,11.65
2023-05-14T16:13:51.974Z,11.30
2023-05-14T16:16:20.733Z,10.90
2023-05-14T16:18:49.081Z,11.15
2023-05-14T16:21:16.936Z,12.48
2023-05-14T16:23:44.691Z,12.23
2023-05-14T16:26:13.051Z,11.15
2023-05-14T16:28:42.777Z,10.95
2023-05-14T16:31:10.574Z,12.73
2023-05-14T16:33:38.881Z,12.32
2023-05-14T16:36:07.095Z,12.10
2023-05-14T16:38:38.520Z,11.13
2023-05-14T16:41:10.351Z,12.63
2023-05-14T16:43:38.122Z,12.73
2023-05-14T16:46:07.419Z,11.75
2023-05-14T16:48:35.952Z,11.73
2023-05-14T16:51:03.763Z,10.23
2023-05-14T16:53:31.558Z,10.88
2023-05-14T16:55:59.939Z,10.57
2023-05-14T16:58:28.402Z,11.85
2023-05-14T17:00:56.234Z,10.23
2023-05-14T17:03:25.522Z,10.50
2023-05-14T17:05:53.485Z,10.90
2023-05-14T17:08:21.294Z,10.30
2023-05-14T17:10:49.697Z,9.18
2023-05-14T17:13:17.738Z,8.23
2023-05-14T17:15:45.549Z,7.50
2023-05-14T17:18:13.967Z,8.95
2023-05-14T17:20:43.158Z,8.05
2023-05-14T17:23:10.897Z,8.48
2023-05-14T17:25:39.399Z,8.07
2023-05-14T17:28:07.206Z,7.97
2023-05-14T17:30:34.992Z,8.40
2023-05-14T17:33:03.416Z,9.82
2023-05-14T17:35:35.678Z,8.13
2023-05-14T17:38:05.434Z,8.63
2023-05-14T17:40:33.470Z,8.30
2023-05-14T17:43:01.378Z,8.63
2023-05-14T17:45:36.380Z,8.75
2023-05-14T17:48:10.756Z,9.82
2023-05-14T17:50:39.795Z,10.32
2023-05-14T17:53:08.911Z,8.30
2023-05-14T17:55:42.663Z,8.00
2023-05-14T17:58:11.366Z,8.00
2023-05-14T18:00:39.461Z,8.85
2023-05-14T18:03:08.048Z,8.88
2023-05-14T18:05:36.111Z,8.57
2023-05-14T18:08:03.868Z,8.60
2023-05-14T18:10:33.297Z,8.15
2023-05-14T18:13:01.108Z,8.55
2023-05-14T18:15:29.301Z,7.80
2023-05-14T18:17:57.141Z,7.80
2023-05-14T18:20:24.993Z,8.13
2023-05-14T18:22:52.794Z,7.68
2023-05-14T18:25:20.905Z,7.72
2023-05-14T18:27:50.055Z,7.40
2023-05-14T18:30:17.878Z,8.20
2023-05-14T18:32:46.842Z,8.70
2023-05-14T18:35:14.820Z,8.35
2023-05-14T18:37:42.582Z,8.05
2023-05-14T18:40:16.355Z,9.43
2023-05-14T18:42:46.207Z,9.38
2023-05-14T18:45:15.631Z,8.65
2023-05-14T18:47:43.495Z,8.88
2023-05-14T18:50:11.818Z,9.13
2023-05-14T18:52:39.767Z,8.38
2023-05-14T18:55:08.211Z,8.23
2023-05-14T18:57:37.601Z,7.82
2023-05-14T19:00:06.403Z,7.68
2023-05-14T19:02:36.021Z,7.68
2023-05-14T19:05:04.057Z,7.03
2023-05-14T19:07:32.435Z,7.20
2023-05-14T19:10:00.430Z,7.28
2023-05-14T19:12:28.825Z,8.05
2023-05-14T19:14:56.649Z,7.55
2023-05-14T19:17:25.038Z,7.30
2023-05-14T19:19:54.456Z,7.78
2023-05-14T19:22:22.846Z,6.78
2023-05-14T19:27:24.703Z,7.88
2023-05-14T19:29:52.533Z,8.23
2023-05-14T19:32:20.310Z,8.57
2023-05-14T19:34:49.500Z,8.52
2023-05-14T19:37:20.072Z,8.93
2023-05-14T19:39:48.584Z,9.20
2023-05-14T19:42:16.499Z,10.98
2023-05-14T19:44:44.314Z,12.15
2023-05-14T19:47:12.800Z,9.27
2023-05-14T19:49:40.714Z,8.75
2023-05-14T19:52:08.531Z,10.05
2023-05-14T19:54:38.395Z,8.60
2023-05-14T19:57:06.983Z,9.68
2023-05-14T19:59:34.810Z,8.93
2023-05-14T20:02:03.236Z,9.48
2023-05-14T20:04:31.101Z,9.68
2023-05-14T20:06:58.942Z,10.00
2023-05-14T20:09:27.646Z,9.98
2023-05-14T20:11:56.763Z,10.87
2023-05-14T20:14:24.599Z,10.80
2023-05-14T20:16:53.562Z,10.40
2023-05-14T20:19:22.169Z,10.18
2023-05-14T20:21:50.052Z,11.40
2023-05-14T20:24:18.062Z,11.40
2023-05-14T20:26:45.819Z,12.00
2023-05-14T20:29:15.642Z,10.55
2023-05-14T20:31:43.632Z,10.52
2023-05-14T20:34:11.373Z,10.57
2023-05-14T20:36:39.137Z,10.98
2023-05-14T20:39:07.365Z,11.60
2023-05-14T20:41:35.417Z,10.57
2023-05-14T20:44:03.160Z,10.05
2023-05-14T20:46:32.576Z,11.07
2023-05-14T20:49:01.920Z,10.25
2023-05-14T20:51:29.687Z,10.30
2023-05-14T20:53:57.659Z,10.38
2023-05-14T20:56:26.352Z,9.93
2023-05-14T20:58:54.114Z,10.27
2023-05-14T21:01:22.759Z,10.50
2023-05-14T21:03:52.140Z,11.60
2023-05-14T21:06:20.092Z,11.27
2023-05-14T21:08:47.901Z,11.82
2023-05-14T21:11:15.658Z,12.02
2023-05-14T21:13:44.174Z,10.63
2023-05-14T21:16:12.965Z,11.65
2023-05-14T21:18:40.855Z,13.52
2023-05-14T21:21:10.096Z,14.50
2023-05-14T21:23:38.429Z,13.43
2023-05-14T21:26:06.359Z,13.90
2023-05-14T21:28:34.171Z,15.23
2023-05-14T21:31:02.382Z,16.98
2023-05-14T21:33:30.167Z,16.73
2023-05-14T21:35:57.988Z,17.30
2023-05-14T21:38:27.918Z,18.23
2023-05-14T21:40:55.690Z,18.80
2023-05-14T21:43:23.496Z,18.70
2023-05-14T21:45:51.997Z,18.48
2023-05-14T21:48:20.834Z,20.40
2023-05-14T21:50:48.713Z,18.65
2023-05-14T21:53:17.111Z,20.52
2023-05-14T21:55:46.343Z,19.13
2023-05-14T21:58:14.213Z,19.77
2023-05-14T22:00:42.488Z,20.20
2023-05-14T22:03:10.415Z,18.50
2023-05-14T22:05:38.289Z,20.40
2023-05-14T22:08:07.177Z,20.83
2023-05-14T22:10:36.015Z,21.73
2023-05-14T22:13:05.164Z,21.65
2023-05-14T22:15:33.497Z,19.60
2023-05-14T22:18:03.085Z,19.58
2023-05-14T22:22:59.083Z,21.52
2023-05-14T22:25:27.230Z,23.83
2023-05-14T22:27:55.161Z,24.02
2023-05-14T22:30:25.067Z,24.08
2023-05-14T22:32:52.879Z,24.65
2023-05-14T22:35:21.251Z,25.45
2023-05-14T22:37:49.576Z,24.77
2023-05-14T22:40:17.338Z,23.67
2023-05-14T22:42:45.234Z,23.20
2023-05-14T22:45:13.693Z,24.02
2023-05-14T22:47:42.884Z,25.17
2023-05-14T22:50:12.121Z,23.55
2023-05-14T22:52:40.692Z,25.10
2023-05-14T22:55:09.309Z,25.42
2023-05-14T22:57:37.163Z,26.58
2023-05-14T23:00:07.559Z,26.08
2023-05-14T23:02:35.754Z,25.23
2023-05-14T23:05:05.434Z,25.92
2023-05-14T23:10:01.836Z,27.58
2023-05-14T23:12:29.669Z,27.88
2023-05-14T23:14:59.616Z,26.42
2023-05-14T23:17:27.851Z,29.02
2023-05-14T23:19:55.806Z,30.65
2023-05-14T23:22:25.533Z,31.70
2023-05-14T23:24:53.306Z,30.30
2023-05-14T23:27:21.070Z,32.55
2023-05-14T23:29:49.520Z,32.05
2023-05-14T23:32:17.297Z,31.35
2023-05-14T23:34:45.079Z,32.88
2023-05-14T23:37:13.555Z,34.25
2023-05-14T23:39:42.718Z,36.55
2023-05-14T23:42:12.030Z,35.78
2023-05-14T23:44:40.311Z,36.28
2023-05-14T23:47:08.784Z,39.25
2023-05-14T23:49:36.686Z,36.75
2023-05-14T23:52:05.269Z,38.60
2023-05-14T23:54:33.037Z,39.95
2023-05-14T23:57:05.045Z,38.33
2023-05-14T23:59:33.464Z,39.92
